createdAt,value
2019-03-10T00:00:35.874Z,91.80
2019-03-10T00:03:05.312Z,91.70
2019-03-10T00:05:34.451Z,91.70
2019-03-10T00:08:03.630Z,91.30
2019-03-10T00:10:32.767Z,91.40
2019-03-10T00:13:01.915Z,91.50
2019-03-10T00:15:31.071Z,91.60
2019-03-10T00:18:00.310Z,91.50
2019-03-10T00:20:29.447Z,91.70
2019-03-10T00:22:58.576Z,91.50
2019-03-10T00:25:27.787Z,91.60
2019-03-10T00:27:56.911Z,91.60
2019-03-10T00:30:26.452Z,91.70
2019-03-10T00:32:55.590Z,91.80
2019-03-10T00:35:24.720Z,91.80
2019-03-10T00:37:53.859Z,91.70
2019-03-10T00:40:45.746Z,92.00
2019-03-10T00:43:29.801Z,91.80
2019-03-10T00:46:37.983Z,91.90
2019-03-10T00:49:13.114Z,91.80
2019-03-10T00:52:03.170Z,91.70
2019-03-10T00:54:32.376Z,91.70
2019-03-10T00:57:01.519Z,91.80
2019-03-10T00:59:32.025Z,92.00
2019-03-10T01:02:01.167Z,92.20
2019-03-10T01:04:31.380Z,92.20
2019-03-10T01:07:01.652Z,92.20
2019-03-10T01:09:31.171Z,92.20
2019-03-10T01:12:00.466Z,92.30
2019-03-10T01:14:29.609Z,92.50
2019-03-10T01:17:00.384Z,92.70
2019-03-10T01:19:29.531Z,92.80
2019-03-10T01:21:58.668Z,92.80
2019-03-10T01:24:27.831Z,92.90
2019-03-10T01:26:57.002Z,92.90
2019-03-10T01:29:26.169Z,93.10
2019-03-10T01:32:13.217Z,93.10
2019-03-10T01:35:00.450Z,93.00
2019-03-10T01:37:29.622Z,93.10
2019-03-10T01:39:58.830Z,93.10
2019-03-10T01:42:27.976Z,93.00
2019-03-10T01:44:57.189Z,92.90
2019-03-10T01:47:26.392Z,92.90
2019-03-10T01:49:55.550Z,93.00
2019-03-10T01:52:24.705Z,93.10
2019-03-10T01:54:53.942Z,93.60
2019-03-10T01:57:23.102Z,93.40
2019-03-10T01:59:54.594Z,93.30
2019-03-10T02:02:25.929Z,93.20
2019-03-10T02:04:54.607Z,93.20
2019-03-10T02:07:23.817Z,92.90
2019-03-10T02:09:53.039Z,93.10
2019-03-10T02:12:22.186Z,93.20
2019-03-10T02:14:51.402Z,93.40
2019-03-10T02:17:20.548Z,93.40
2019-03-10T02:19:49.746Z,93.40
2019-03-10T02:22:18.904Z,93.40
2019-03-10T02:24:48.051Z,93.30
2019-03-10T02:27:17.186Z,93.40
2019-03-10T02:29:46.338Z,93.50
2019-03-10T02:32:15.528Z,93.40
2019-03-10T02:34:44.710Z,93.60
2019-03-10T02:37:13.903Z,93.80
2019-03-10T02:39:43.071Z,93.70
2019-03-10T02:42:12.243Z,93.90
2019-03-10T02:44:41.383Z,93.90
2019-03-10T02:47:10.555Z,93.90
2019-03-10T02:49:39.737Z,94.20
2019-03-10T02:52:08.964Z,94.20
2019-03-10T02:54:44.090Z,94.20
2019-03-10T02:57:13.623Z,94.20
2019-03-10T02:59:42.854Z,94.20
2019-03-10T03:02:12.157Z,94.50
2019-03-10T03:04:41.377Z,94.10
2019-03-10T03:07:11.616Z,94.10
2019-03-10T03:09:40.855Z,93.90
2019-03-10T03:12:11.678Z,93.90
2019-03-10T03:14:40.891Z,93.90
2019-03-10T03:17:10.095Z,93.80
2019-03-10T03:19:39.236Z,93.90
2019-03-10T03:22:08.381Z,93.90
2019-03-10T03:24:37.580Z,93.90
2019-03-10T03:27:06.735Z,93.70
2019-03-10T03:29:35.880Z,93.70
2019-03-10T03:32:05.036Z,93.70
2019-03-10T03:34:34.250Z,93.60
2019-03-10T03:37:03.559Z,93.60
2019-03-10T03:39:34.244Z,93.80
2019-03-10T03:42:04.677Z,93.80
2019-03-10T03:44:53.371Z,93.70
2019-03-10T03:47:23.072Z,93.90
2019-03-10T03:49:52.223Z,94.00
2019-03-10T03:52:21.447Z,94.10
2019-03-10T03:54:50.699Z,94.30
2019-03-10T03:57:19.911Z,94.20
2019-03-10T03:59:49.112Z,94.30
2019-03-10T04:02:19.907Z,94.40
2019-03-10T04:04:49.032Z,94.50
2019-03-10T04:07:18.271Z,94.60
2019-03-10T04:09:47.418Z,94.70
2019-03-10T04:12:20.936Z,94.80
2019-03-10T04:14:58.200Z,94.80
2019-03-10T04:17:27.342Z,94.90
2019-03-10T04:19:56.503Z,94.90
2019-03-10T04:22:25.646Z,95.00
2019-03-10T04:24:54.796Z,95.00
2019-03-10T04:27:23.956Z,95.20
2019-03-10T04:29:54.128Z,95.30
2019-03-10T04:32:23.272Z,95.40
2019-03-10T04:34:52.423Z,95.50
2019-03-10T04:37:21.590Z,95.80
2019-03-10T04:39:50.720Z,95.50
2019-03-10T04:42:19.858Z,95.60
2019-03-10T04:44:49.003Z,95.30
2019-03-10T04:47:18.128Z,95.20
2019-03-10T04:49:47.316Z,95.10
2019-03-10T04:52:16.470Z,95.00
2019-03-10T04:55:00.686Z,94.90
2019-03-10T04:57:31.101Z,94.90
2019-03-10T05:00:00.354Z,94.90
2019-03-10T05:02:29.580Z,94.70
2019-03-10T05:04:58.711Z,94.60
2019-03-10T05:07:28.236Z,94.50
2019-03-10T05:09:57.378Z,94.40
2019-03-10T05:12:39.275Z,94.40
2019-03-10T05:15:08.424Z,94.60
2019-03-10T05:17:37.665Z,94.40
2019-03-10T05:20:07.132Z,94.40
2019-03-10T05:22:36.584Z,94.40
2019-03-10T05:25:12.132Z,94.50
2019-03-10T05:27:41.270Z,94.50
2019-03-10T05:30:10.412Z,94.60
2019-03-10T05:32:39.550Z,94.70
2019-03-10T05:35:08.705Z,94.70
2019-03-10T05:37:37.992Z,94.70
2019-03-10T05:40:08.577Z,94.90
2019-03-10T05:42:37.718Z,94.90
2019-03-10T05:45:07.998Z,95.00
2019-03-10T05:47:37.158Z,95.60
2019-03-10T05:50:06.394Z,95.30
2019-03-10T05:52:35.566Z,95.30
2019-03-10T05:55:05.778Z,95.30
2019-03-10T05:57:34.995Z,95.30
2019-03-10T06:00:06.974Z,95.30
2019-03-10T06:02:36.129Z,95.30
2019-03-10T06:05:06.289Z,95.10
2019-03-10T06:07:36.831Z,95.20
2019-03-10T06:10:06.802Z,95.10
2019-03-10T06:12:35.941Z,95.20
2019-03-10T06:15:06.822Z,95.20
2019-03-10T06:17:35.970Z,95.30
2019-03-10T06:20:07.532Z,95.40
2019-03-10T06:22:36.675Z,95.50
2019-03-10T06:25:06.791Z,95.40
2019-03-10T06:27:35.951Z,95.60
2019-03-10T06:30:08.352Z,95.60
2019-03-10T06:32:37.498Z,95.50
2019-03-10T06:35:07.013Z,95.60
2019-03-10T06:37:36.151Z,95.70
2019-03-10T06:40:06.868Z,95.50
2019-03-10T06:42:36.000Z,95.50
2019-03-10T06:45:06.498Z,95.10
2019-03-10T06:47:35.669Z,95.00
2019-03-10T06:50:08.097Z,94.80
2019-03-10T06:52:37.248Z,94.70
2019-03-10T06:55:06.748Z,94.10
2019-03-10T06:57:36.950Z,93.90
2019-03-10T07:00:09.603Z,93.60
2019-03-10T07:02:38.736Z,93.40
2019-03-10T07:05:10.638Z,92.90
2019-03-10T07:07:39.835Z,92.70
2019-03-10T07:10:14.139Z,92.50
2019-03-10T07:12:43.358Z,92.20
2019-03-10T07:15:13.646Z,92.20
2019-03-10T07:17:42.793Z,91.90
2019-03-10T07:20:19.229Z,91.60
2019-03-10T07:22:49.775Z,91.50
2019-03-10T07:25:18.962Z,91.50
2019-03-10T07:28:01.689Z,91.30
2019-03-10T07:30:45.626Z,91.20
2019-03-10T07:33:32.903Z,90.70
2019-03-10T07:36:03.686Z,90.50
2019-03-10T07:38:46.438Z,90.40
2019-03-10T07:41:32.445Z,90.30
2019-03-10T07:44:03.373Z,90.30
2019-03-10T07:46:51.767Z,90.20
2019-03-10T07:49:28.673Z,90.60
2019-03-10T07:51:59.803Z,88.80
2019-03-10T07:54:30.573Z,88.90
2019-03-10T07:57:14.160Z,89.20
2019-03-10T07:59:48.009Z,89.00
2019-03-10T08:02:33.786Z,88.90
2019-03-10T08:05:07.507Z,88.30
2019-03-10T08:07:56.350Z,86.90
2019-03-10T08:10:30.482Z,86.20
2019-03-10T08:13:01.298Z,86.50
2019-03-10T08:15:38.058Z,86.70
2019-03-10T08:18:11.558Z,86.10
2019-03-10T08:20:58.802Z,85.30
2019-03-10T08:23:38.626Z,85.00
2019-03-10T08:26:12.146Z,83.60
2019-03-10T08:28:48.794Z,83.00
2019-03-10T08:31:22.506Z,82.60
2019-03-10T08:33:59.765Z,82.50
2019-03-10T08:36:33.046Z,84.20
2019-03-10T08:39:16.072Z,80.50
2019-03-10T08:41:52.654Z,80.20
2019-03-10T08:44:35.372Z,77.70
2019-03-10T08:47:22.563Z,77.40
2019-03-10T08:49:54.418Z,79.80
2019-03-10T08:52:40.142Z,78.90
2019-03-10T08:55:27.389Z,77.80
2019-03-10T08:58:14.603Z,78.10
2019-03-10T09:00:51.430Z,78.90
2019-03-10T09:03:22.210Z,76.90
2019-03-10T09:05:53.041Z,76.20
2019-03-10T09:08:30.366Z,77.00
2019-03-10T09:11:10.200Z,78.20
2019-03-10T09:13:47.286Z,77.20
2019-03-10T09:16:27.302Z,77.00
2019-03-10T09:19:00.827Z,75.80
2019-03-10T09:21:31.696Z,75.10
2019-03-10T09:24:02.507Z,75.70
2019-03-10T09:26:49.999Z,74.60
2019-03-10T09:29:29.781Z,73.60
2019-03-10T09:32:00.676Z,70.50
2019-03-10T09:34:46.508Z,72.60
2019-03-10T09:37:24.095Z,71.00
2019-03-10T09:40:11.135Z,70.90
2019-03-10T09:42:53.738Z,72.60
2019-03-10T09:45:28.152Z,71.00
2019-03-10T09:48:13.525Z,71.50
2019-03-10T09:51:00.603Z,71.50
2019-03-10T09:53:37.534Z,70.50
2019-03-10T09:56:24.711Z,70.30
2019-03-10T09:59:07.445Z,70.70
2019-03-10T10:01:44.430Z,69.50
2019-03-10T10:04:15.276Z,69.00
2019-03-10T10:06:46.095Z,68.30
2019-03-10T10:09:22.898Z,67.80
2019-03-10T10:11:53.735Z,68.70
2019-03-10T10:14:33.439Z,68.70
2019-03-10T10:17:22.275Z,69.90
2019-03-10T10:19:58.904Z,69.40
2019-03-10T10:22:29.794Z,69.60
2019-03-10T10:25:15.875Z,69.70
2019-03-10T10:27:49.859Z,70.50
2019-03-10T10:30:38.682Z,69.90
2019-03-10T10:33:12.359Z,70.20
2019-03-10T10:35:46.028Z,70.70
2019-03-10T10:38:19.841Z,69.30
2019-03-10T10:41:06.770Z,69.80
2019-03-10T10:43:40.228Z,69.80
2019-03-10T10:46:27.552Z,71.70
2019-03-10T10:49:04.550Z,70.70
2019-03-10T10:51:51.965Z,71.50
2019-03-10T10:54:25.455Z,71.40
2019-03-10T10:56:56.368Z,72.50
2019-03-10T10:59:36.493Z,72.60
2019-03-10T11:02:19.230Z,73.10
2019-03-10T11:04:55.940Z,73.40
2019-03-10T11:07:35.864Z,74.50
2019-03-10T11:10:19.743Z,75.40
2019-03-10T11:13:07.033Z,76.40
2019-03-10T11:15:41.643Z,77.70
2019-03-10T11:18:18.641Z,78.20
2019-03-10T11:20:50.431Z,80.80
2019-03-10T11:23:27.205Z,81.40
2019-03-10T11:26:00.978Z,80.30
2019-03-10T11:28:46.527Z,79.90
2019-03-10T11:31:32.137Z,81.10
2019-03-10T11:34:14.107Z,78.70
2019-03-10T11:36:51.004Z,78.40
2019-03-10T11:39:24.856Z,80.20
2019-03-10T11:41:55.799Z,81.40
2019-03-10T11:44:44.894Z,82.90
2019-03-10T11:47:15.690Z,84.10
2019-03-10T11:50:04.567Z,85.90
2019-03-10T11:52:38.450Z,88.30
2019-03-10T11:55:09.951Z,87.10
2019-03-10T11:57:45.724Z,89.00
2019-03-10T12:00:25.273Z,88.40
2019-03-10T12:02:58.984Z,88.00
2019-03-10T12:05:51.228Z,84.30
2019-03-10T12:08:24.712Z,80.60
2019-03-10T12:10:53.885Z,78.10
2019-03-10T12:13:23.111Z,79.70
2019-03-10T12:15:52.430Z,78.70
2019-03-10T12:18:22.623Z,80.80
2019-03-10T12:20:52.003Z,83.50
2019-03-10T12:23:22.166Z,75.30
2019-03-10T12:25:52.832Z,78.20
2019-03-10T12:28:22.268Z,77.00
2019-03-10T12:30:51.419Z,75.70
2019-03-10T12:33:20.583Z,74.60
2019-03-10T12:35:49.939Z,75.10
2019-03-10T12:38:19.167Z,73.80
2019-03-10T12:40:48.374Z,73.90
2019-03-10T12:43:21.150Z,74.00
2019-03-10T12:45:50.671Z,73.50
2019-03-10T12:48:21.344Z,75.90
2019-03-10T12:50:52.155Z,76.40
2019-03-10T12:53:25.192Z,76.50
2019-03-10T12:55:54.409Z,76.60
2019-03-10T12:58:23.844Z,75.40
2019-03-10T13:01:05.358Z,76.50
2019-03-10T13:03:26.666Z,77.00
2019-03-10T13:05:59.641Z,76.80
2019-03-10T13:08:28.892Z,78.60
2019-03-10T13:10:59.447Z,77.80
2019-03-10T13:13:32.072Z,78.40
2019-03-10T13:16:01.268Z,77.50
2019-03-10T13:18:30.454Z,80.20
2019-03-10T13:20:59.775Z,77.10
2019-03-10T13:23:28.979Z,79.30
2019-03-10T13:25:58.714Z,80.70
2019-03-10T13:28:29.466Z,81.00
2019-03-10T13:30:58.715Z,81.90
2019-03-10T13:33:27.948Z,82.40
2019-03-10T13:35:57.246Z,82.90
2019-03-10T13:38:26.449Z,82.10
2019-03-10T13:40:55.674Z,83.70
2019-03-10T13:43:25.253Z,84.90
2019-03-10T13:46:00.368Z,86.00
2019-03-10T13:48:33.325Z,86.80
2019-03-10T13:51:02.507Z,84.70
2019-03-10T13:53:31.703Z,88.50
2019-03-10T13:56:01.145Z,90.30
2019-03-10T13:58:30.618Z,90.80
2019-03-10T14:01:01.603Z,90.60
2019-03-10T14:03:30.903Z,90.70
2019-03-10T14:06:00.079Z,90.70
2019-03-10T14:08:29.283Z,90.10
2019-03-10T14:10:58.622Z,90.60
2019-03-10T14:13:28.535Z,91.00
2019-03-10T14:16:00.772Z,91.70
2019-03-10T14:18:36.129Z,91.50
2019-03-10T14:21:05.280Z,91.50
2019-03-10T14:23:35.246Z,91.60
2019-03-10T14:26:06.363Z,92.00
2019-03-10T14:28:35.811Z,93.10
2019-03-10T14:31:04.989Z,92.70
2019-03-10T14:33:35.533Z,92.70
2019-03-10T14:36:04.701Z,93.10
2019-03-10T14:38:34.055Z,92.80
2019-03-10T14:41:03.193Z,93.10
2019-03-10T14:43:33.387Z,92.70
2019-03-10T14:46:02.618Z,91.90
2019-03-10T14:48:32.952Z,92.30
2019-03-10T14:51:02.214Z,92.20
2019-03-10T14:53:31.992Z,92.80
2019-03-10T14:56:01.276Z,93.10
2019-03-10T14:58:33.485Z,93.30
2019-03-10T15:01:02.867Z,92.70
2019-03-10T15:03:32.372Z,93.90
2019-03-10T15:06:01.567Z,93.90
2019-03-10T15:08:30.823Z,94.40
2019-03-10T15:11:00.026Z,94.50
2019-03-10T15:13:29.323Z,94.60
2019-03-10T15:16:01.690Z,94.50
2019-03-10T15:18:30.979Z,94.70
2019-03-10T15:21:00.548Z,94.70
2019-03-10T15:23:32.091Z,94.40
2019-03-10T15:26:01.660Z,94.40
2019-03-10T15:28:31.490Z,94.80
2019-03-10T15:31:01.097Z,94.40
2019-03-10T15:33:34.729Z,94.20
2019-03-10T15:36:03.965Z,94.50
2019-03-10T15:38:36.427Z,94.80
2019-03-10T15:41:05.587Z,94.80
2019-03-10T15:43:34.762Z,94.40
2019-03-10T15:46:03.929Z,94.30
2019-03-10T15:48:38.947Z,94.50
2019-03-10T15:51:08.119Z,94.90
2019-03-10T15:53:37.821Z,94.90
2019-03-10T15:56:08.201Z,95.30
2019-03-10T15:58:37.424Z,95.10
2019-03-10T16:01:09.547Z,95.50
2019-03-10T16:03:38.782Z,95.70
2019-03-10T16:06:07.997Z,96.00
2019-03-10T16:08:37.139Z,95.70
2019-03-10T16:11:06.299Z,95.70
2019-03-10T16:13:37.246Z,96.00
2019-03-10T16:16:06.702Z,96.30
2019-03-10T16:18:36.248Z,96.60
2019-03-10T16:21:07.221Z,97.00
2019-03-10T16:23:36.735Z,97.20
2019-03-10T16:26:06.147Z,96.90
2019-03-10T16:28:35.423Z,96.70
2019-03-10T16:31:05.165Z,96.70
2019-03-10T16:33:40.636Z,96.60
2019-03-10T16:36:09.975Z,97.10
2019-03-10T16:38:39.185Z,97.30
2019-03-10T16:41:08.453Z,97.40
2019-03-10T16:43:37.986Z,97.70
2019-03-10T16:46:07.372Z,98.10
2019-03-10T16:48:36.580Z,98.00
2019-03-10T16:51:05.867Z,97.70
2019-03-10T16:53:35.366Z,98.10
2019-03-10T16:56:06.442Z,97.10
2019-03-10T16:58:36.787Z,97.20
2019-03-10T17:01:06.494Z,97.20
2019-03-10T17:03:35.815Z,97.60
2019-03-10T17:06:06.640Z,97.90
2019-03-10T17:08:36.193Z,97.10
2019-03-10T17:11:05.364Z,97.60
2019-03-10T17:13:36.231Z,98.50
2019-03-10T17:16:08.744Z,97.20
2019-03-10T17:18:37.964Z,97.60
2019-03-10T17:21:07.458Z,98.00
2019-03-10T17:23:37.580Z,97.80
2019-03-10T17:26:06.845Z,98.80
2019-03-10T17:28:36.328Z,98.50
2019-03-10T17:31:05.561Z,98.90
2019-03-10T17:33:34.761Z,98.30
2019-03-10T17:36:04.336Z,98.10
2019-03-10T17:38:33.686Z,97.70
2019-03-10T17:41:02.955Z,98.30
2019-03-10T17:43:32.150Z,98.80
2019-03-10T17:46:01.553Z,99.10
2019-03-10T17:48:31.040Z,99.00
2019-03-10T17:51:01.575Z,98.50
2019-03-10T17:53:30.763Z,98.60
2019-03-10T17:56:01.160Z,98.70
2019-03-10T17:58:30.774Z,98.50
2019-03-10T18:01:00.037Z,98.10
2019-03-10T18:03:29.226Z,98.80
2019-03-10T18:05:58.988Z,99.10
2019-03-10T18:08:28.668Z,98.00
2019-03-10T18:10:58.128Z,97.70
2019-03-10T18:13:27.488Z,98.00
2019-03-10T18:15:57.816Z,98.50
2019-03-10T18:18:27.918Z,97.80
2019-03-10T18:20:59.919Z,98.10
2019-03-10T18:23:29.320Z,99.10
2019-03-10T18:25:59.777Z,98.90
2019-03-10T18:28:29.083Z,99.60
2019-03-10T18:30:58.449Z,99.80
2019-03-10T18:33:28.016Z,98.90
2019-03-10T18:35:57.363Z,99.00
2019-03-10T18:38:26.618Z,99.80
2019-03-10T18:40:55.899Z,99.70
2019-03-10T18:43:25.335Z,99.90
2019-03-10T18:45:56.394Z,99.90
2019-03-10T18:48:26.019Z,99.90
2019-03-10T18:50:55.426Z,99.90
2019-03-10T18:53:25.719Z,99.90
2019-03-10T18:55:55.220Z,99.90
2019-03-10T18:58:24.564Z,99.90
2019-03-10T19:00:53.887Z,99.90
2019-03-10T19:03:23.185Z,99.90
2019-03-10T19:05:54.214Z,99.90
2019-03-10T19:08:23.506Z,99.90
2019-03-10T19:10:57.153Z,99.90
2019-03-10T19:13:29.274Z,99.90
2019-03-10T19:15:58.542Z,99.90
2019-03-10T19:18:28.426Z,99.90
2019-03-10T19:20:58.720Z,99.90
2019-03-10T19:23:28.776Z,99.90
2019-03-10T19:26:03.737Z,99.90
2019-03-10T19:28:33.165Z,99.90
2019-03-10T19:31:02.643Z,99.90
2019-03-10T19:33:32.008Z,99.90
2019-03-10T19:36:01.506Z,99.90
2019-03-10T19:38:32.439Z,99.90
2019-03-10T19:41:01.975Z,99.90
2019-03-10T19:43:33.584Z,99.90
2019-03-10T19:46:07.711Z,99.90
2019-03-10T19:48:39.550Z,99.90
2019-03-10T19:51:08.964Z,99.90
2019-03-10T19:53:38.529Z,99.90
2019-03-10T19:56:15.954Z,99.90
2019-03-10T19:58:45.428Z,99.90
2019-03-10T20:01:17.038Z,99.90
2019-03-10T20:03:46.566Z,99.90
2019-03-10T20:06:16.604Z,99.90
2019-03-10T20:08:46.449Z,99.90
2019-03-10T20:11:17.491Z,99.90
2019-03-10T20:13:47.069Z,99.90
2019-03-10T20:16:16.827Z,99.90
2019-03-10T20:18:47.693Z,99.90
2019-03-10T20:21:17.587Z,99.90
2019-03-10T20:23:47.337Z,99.90
2019-03-10T20:26:18.013Z,99.90
2019-03-10T20:28:48.490Z,99.90
2019-03-10T20:31:17.988Z,99.90
2019-03-10T20:33:47.391Z,99.90
2019-03-10T20:36:19.819Z,99.90
2019-03-10T20:38:49.509Z,99.90
2019-03-10T20:41:20.432Z,99.90
2019-03-10T20:43:49.858Z,99.90
2019-03-10T20:46:19.305Z,99.90
2019-03-10T20:48:51.581Z,99.90
2019-03-10T20:51:21.125Z,99.90
2019-03-10T20:53:50.609Z,99.90
2019-03-10T20:56:19.812Z,99.90
2019-03-10T20:58:49.004Z,99.90
2019-03-10T21:01:18.224Z,99.90
2019-03-10T21:03:47.382Z,99.90
2019-03-10T21:06:16.629Z,99.90
2019-03-10T21:08:45.927Z,99.90
2019-03-10T21:11:18.279Z,99.90
2019-03-10T21:13:49.554Z,99.90
2019-03-10T21:16:21.950Z,99.90
2019-03-10T21:18:51.260Z,99.90
2019-03-10T21:21:20.412Z,99.90
2019-03-10T21:23:50.555Z,99.90
2019-03-10T21:26:19.792Z,99.90
2019-03-10T21:28:48.943Z,99.90
2019-03-10T21:31:18.076Z,99.90
2019-03-10T21:33:47.322Z,99.90
2019-03-10T21:36:16.466Z,99.90
2019-03-10T21:38:45.696Z,99.90
2019-03-10T21:41:14.839Z,99.90
2019-03-10T21:43:44.086Z,99.90
2019-03-10T21:46:13.276Z,99.90
2019-03-10T21:48:42.414Z,99.90
2019-03-10T21:51:11.600Z,99.90
2019-03-10T21:53:40.771Z,99.90
2019-03-10T21:56:09.925Z,99.90
2019-03-10T21:58:39.193Z,99.90
2019-03-10T22:01:08.451Z,99.90
2019-03-10T22:03:38.759Z,99.90
2019-03-10T22:06:07.903Z,99.90
2019-03-10T22:08:37.167Z,99.90
2019-03-10T22:11:06.486Z,99.90
2019-03-10T22:13:46.084Z,99.90
2019-03-10T22:16:07.289Z,99.90
2019-03-10T22:18:38.083Z,99.90
2019-03-10T22:21:07.291Z,99.90
2019-03-10T22:23:38.855Z,99.90
2019-03-10T22:26:08.022Z,99.90
2019-03-10T22:28:37.212Z,99.90
2019-03-10T22:31:06.488Z,99.90
2019-03-10T22:33:35.734Z,99.90
2019-03-10T22:36:06.252Z,99.90
2019-03-10T22:38:35.545Z,99.90
2019-03-10T22:41:04.987Z,99.90
2019-03-10T22:43:34.327Z,99.90
2019-03-10T22:46:03.558Z,99.90
2019-03-10T22:48:32.691Z,99.90
2019-03-10T22:51:01.855Z,99.90
2019-03-10T22:53:31.026Z,99.90
2019-03-10T22:56:01.233Z,99.90
2019-03-10T22:58:30.375Z,99.90
2019-03-10T23:00:59.599Z,99.90
2019-03-10T23:03:28.882Z,99.90
2019-03-10T23:05:58.054Z,99.90
2019-03-10T23:08:27.211Z,99.90
2019-03-10T23:10:56.361Z,99.90
2019-03-10T23:13:25.525Z,99.90
2019-03-10T23:15:57.618Z,99.90
2019-03-10T23:18:26.802Z,99.90
2019-03-10T23:20:55.968Z,99.90
2019-03-10T23:23:25.140Z,99.90
2019-03-10T23:25:54.317Z,99.90
2019-03-10T23:28:23.504Z,99.90
2019-03-10T23:30:52.709Z,99.90
2019-03-10T23:33:22.043Z,99.90
2019-03-10T23:35:51.386Z,99.90
2019-03-10T23:38:20.754Z,99.90
2019-03-10T23:40:50.163Z,99.90
2019-03-10T23:43:21.127Z,99.90
2019-03-10T23:45:50.476Z,99.90
2019-03-10T23:48:19.804Z,99.90
2019-03-10T23:50:49.144Z,99.90
2019-03-10T23:53:18.503Z,99.90
2019-03-10T23:55:47.838Z,99.90
2019-03-10T23:58:18.210Z,99.90
